Terminal Aerodrome Forecast
Issued by NWS Medford, OR

Home | Current Version | Previous Version | Text Only | Print | Product List | Glossary On
Versions: 1 2 3 4 5 6 7 8 9 10 11 12 13 14 15 16 17 18 19
000
FTUS46 KMFR 201906 AAA
TAFMFR
TAF AMD
KMFR 201906Z 2019/2118 VRB03KT 3SM FU SKC
     FM202300 34010KT 6SM FU SKC
     FM210500 VRB03KT 6SM HZ SKC=

USA.gov is the U.S. government's official web portal to all federal, state and local government web resources and services.